Streetsboro, Ohio
Current Conditions -  °F | °C
As of 5:35 AM on Monday 26 Jan 2015 (Local Time) from KPOV Reporting Station
Overcast Overcast  
Wind Chill: 10°   Ceiling: 2300
Heat Index: 18°   Visibility: 10mi
Dew Point: 13°   Wind: 6mph
Humidity: 81%   Direction: 30°NNE
Pressure: 29.75"   Gusts: NA
Location:  41.24°N, 81.34°W
Report Text: KPOV 261035Z AUTO 03005KT 10SM OVC023 M08/M10 A2975 RMK AO2 T10771104
Loading
Personal Weather Stations






























Interactive Weather Map New forecast layout! Learn more

10-Day Weather Forecast

Advertisements
Track Severe Weather on mobile